Calverton Park, Missouri
Current Conditions -  °F | °C
As of 9:51 PM on Wednesday 22 Oct 2014 (Local Time) from KSTL Reporting Station
Few Clouds Few Clouds  
Wind Chill: 50°   Ceiling: Unl
Heat Index: 50°   Visibility: 10mi
Dew Point: 41°   Wind: 6mph
Humidity: 71%   Direction: 110°ESE
Pressure: 30.24"   Gusts: NA
Location:  38.7497°N, 90.2989°W
Report Text: KSTL 230251Z 11005KT 10SM FEW250 10/05 A3024 RMK AO2 SLP241 T01000050 51011
Loading
Personal Weather Stations






























Interactive Weather Map
Tropical Storm Tracking
New forecast layout! Learn more

10-Day Weather Forecast

Advertisements
Track Severe Weather on mobile